sensor_id;sensor_type;location;lat;lon;timestamp;pressure;altitude;pressure_sealevel;temperature
15079;BMP180;6932;51.438;5.470;2023-11-19T00:00:22;100524.00;;;17.90
15079;BMP180;6932;51.438;5.470;2023-11-19T00:02:49;100509.00;;;17.90
15079;BMP180;6932;51.438;5.470;2023-11-19T00:05:14;100517.00;;;17.90
15079;BMP180;6932;51.438;5.470;2023-11-19T00:07:40;100508.00;;;17.90
15079;BMP180;6932;51.438;5.470;2023-11-19T00:10:09;100518.00;;;17.90
15079;BMP180;6932;51.438;5.470;2023-11-19T00:12:36;100515.00;;;17.90
15079;BMP180;6932;51.438;5.470;2023-11-19T00:15:02;100506.00;;;17.90
15079;BMP180;6932;51.438;5.470;2023-11-19T00:17:29;100487.00;;;17.90
15079;BMP180;6932;51.438;5.470;2023-11-19T00:19:54;100490.00;;;18.00
15079;BMP180;6932;51.438;5.470;2023-11-19T00:22:20;100489.00;;;18.00
15079;BMP180;6932;51.438;5.470;2023-11-19T00:24:47;100492.00;;;18.00
15079;BMP180;6932;51.438;5.470;2023-11-19T00:27:12;100476.00;;;18.00
15079;BMP180;6932;51.438;5.470;2023-11-19T00:29:38;100472.00;;;18.00
15079;BMP180;6932;51.438;5.470;2023-11-19T00:32:04;100462.00;;;18.00
15079;BMP180;6932;51.438;5.470;2023-11-19T00:34:31;100445.00;;;18.00
15079;BMP180;6932;51.438;5.470;2023-11-19T00:36:56;100447.00;;;18.00
15079;BMP180;6932;51.438;5.470;2023-11-19T00:39:22;100440.00;;;18.00
15079;BMP180;6932;51.438;5.470;2023-11-19T00:41:48;100451.00;;;18.00
15079;BMP180;6932;51.438;5.470;2023-11-19T00:44:14;100462.00;;;18.00
15079;BMP180;6932;51.438;5.470;2023-11-19T00:46:39;100460.00;;;18.00
15079;BMP180;6932;51.438;5.470;2023-11-19T00:49:05;100439.00;;;18.00
15079;BMP180;6932;51.438;5.470;2023-11-19T00:51:31;100461.00;;;18.00
15079;BMP180;6932;51.438;5.470;2023-11-19T00:53:58;100462.00;;;18.00
15079;BMP180;6932;51.438;5.470;2023-11-19T00:56:24;100463.00;;;18.00
15079;BMP180;6932;51.438;5.470;2023-11-19T00:58:50;100473.00;;;18.00
15079;BMP180;6932;51.438;5.470;2023-11-19T01:01:16;100476.00;;;18.00
15079;BMP180;6932;51.438;5.470;2023-11-19T01:03:41;100470.00;;;18.00
15079;BMP180;6932;51.438;5.470;2023-11-19T01:06:07;100471.00;;;18.00
15079;BMP180;6932;51.438;5.470;2023-11-19T01:08:34;100462.00;;;18.00
15079;BMP180;6932;51.438;5.470;2023-11-19T01:11:01;100462.00;;;18.00
15079;BMP180;6932;51.438;5.470;2023-11-19T01:13:28;100462.00;;;18.00
15079;BMP180;6932;51.438;5.470;2023-11-19T01:15:53;100472.00;;;18.00
15079;BMP180;6932;51.438;5.470;2023-11-19T01:18:21;100472.00;;;18.00
15079;BMP180;6932;51.438;5.470;2023-11-19T01:20:47;100468.00;;;18.00
15079;BMP180;6932;51.438;5.470;2023-11-19T01:23:13;100453.00;;;18.00
15079;BMP180;6932;51.438;5.470;2023-11-19T01:25:39;100456.00;;;18.00
15079;BMP180;6932;51.438;5.470;2023-11-19T01:28:04;100444.00;;;18.00
15079;BMP180;6932;51.438;5.470;2023-11-19T01:30:30;100457.00;;;18.00
15079;BMP180;6932;51.438;5.470;2023-11-19T01:32:56;100433.00;;;18.00
15079;BMP180;6932;51.438;5.470;2023-11-19T01:35:22;100430.00;;;18.00
15079;BMP180;6932;51.438;5.470;2023-11-19T01:37:48;100433.00;;;18.00
15079;BMP180;6932;51.438;5.470;2023-11-19T01:40:21;100438.00;;;17.90
15079;BMP180;6932;51.438;5.470;2023-11-19T01:42:46;100425.00;;;18.00
15079;BMP180;6932;51.438;5.470;2023-11-19T01:45:27;100437.00;;;17.90
15079;BMP180;6932;51.438;5.470;2023-11-19T01:47:55;100440.00;;;18.00
15079;BMP180;6932;51.438;5.470;2023-11-19T01:50:22;100446.00;;;18.00
15079;BMP180;6932;51.438;5.470;2023-11-19T01:52:52;100434.00;;;18.00
15079;BMP180;6932;51.438;5.470;2023-11-19T01:55:21;100443.00;;;18.00
15079;BMP180;6932;51.438;5.470;2023-11-19T01:57:48;100440.00;;;18.00
15079;BMP180;6932;51.438;5.470;2023-11-19T02:00:16;100441.00;;;18.00
15079;BMP180;6932;51.438;5.470;2023-11-19T02:02:44;100448.00;;;18.00
15079;BMP180;6932;51.438;5.470;2023-11-19T02:05:11;100445.00;;;18.00
15079;BMP180;6932;51.438;5.470;2023-11-19T02:07:38;100447.00;;;18.00
15079;BMP180;6932;51.438;5.470;2023-11-19T02:10:04;100441.00;;;18.00
15079;BMP180;6932;51.438;5.470;2023-11-19T02:12:32;100435.00;;;18.00
15079;BMP180;6932;51.438;5.470;2023-11-19T02:15:02;100450.00;;;17.90
15079;BMP180;6932;51.438;5.470;2023-11-19T02:17:32;100440.00;;;17.90
15079;BMP180;6932;51.438;5.470;2023-11-19T02:19:58;100441.00;;;17.90
15079;BMP180;6932;51.438;5.470;2023-11-19T02:22:24;100444.00;;;17.90
15079;BMP180;6932;51.438;5.470;2023-11-19T02:24:59;100447.00;;;17.80
15079;BMP180;6932;51.438;5.470;2023-11-19T02:27:53;100433.00;;;17.80
15079;BMP180;6932;51.438;5.470;2023-11-19T02:30:23;100418.00;;;17.80
15079;BMP180;6932;51.438;5.470;2023-11-19T02:32:53;100420.00;;;17.80
15079;BMP180;6932;51.438;5.470;2023-11-19T02:35:19;100418.00;;;17.80
15079;BMP180;6932;51.438;5.470;2023-11-19T02:37:47;100429.00;;;17.80
15079;BMP180;6932;51.438;5.470;2023-11-19T02:40:13;100426.00;;;17.80
15079;BMP180;6932;51.438;5.470;2023-11-19T02:42:39;100421.00;;;17.80
15079;BMP180;6932;51.438;5.470;2023-11-19T02:45:05;100412.00;;;17.70
15079;BMP180;6932;51.438;5.470;2023-11-19T02:47:33;100402.00;;;17.70
15079;BMP180;6932;51.438;5.470;2023-11-19T02:49:59;100406.00;;;17.70
15079;BMP180;6932;51.438;5.470;2023-11-19T02:52:25;100404.00;;;17.70
15079;BMP180;6932;51.438;5.470;2023-11-19T02:54:51;100401.00;;;17.70
15079;BMP180;6932;51.438;5.470;2023-11-19T02:57:18;100406.00;;;17.70
15079;BMP180;6932;51.438;5.470;2023-11-19T02:59:45;100418.00;;;17.70
15079;BMP180;6932;51.438;5.470;2023-11-19T03:02:11;100415.00;;;17.60
15079;BMP180;6932;51.438;5.470;2023-11-19T03:04:38;100402.00;;;17.60
15079;BMP180;6932;51.438;5.470;2023-11-19T03:07:08;100406.00;;;17.60
15079;BMP180;6932;51.438;5.470;2023-11-19T03:09:34;100404.00;;;17.60
15079;BMP180;6932;51.438;5.470;2023-11-19T03:12:01;100416.00;;;17.60
15079;BMP180;6932;51.438;5.470;2023-11-19T03:14:27;100410.00;;;17.60
15079;BMP180;6932;51.438;5.470;2023-11-19T03:16:53;100408.00;;;17.60
15079;BMP180;6932;51.438;5.470;2023-11-19T03:19:19;100407.00;;;17.50
15079;BMP180;6932;51.438;5.470;2023-11-19T03:21:45;100411.00;;;17.50
15079;BMP180;6932;51.438;5.470;2023-11-19T03:24:13;100426.00;;;17.50
15079;BMP180;6932;51.438;5.470;2023-11-19T03:26:39;100425.00;;;17.50
15079;BMP180;6932;51.438;5.470;2023-11-19T03:29:05;100412.00;;;17.50
15079;BMP180;6932;51.438;5.470;2023-11-19T03:31:30;100414.00;;;17.50
15079;BMP180;6932;51.438;5.470;2023-11-19T03:33:56;100423.00;;;17.50
15079;BMP180;6932;51.438;5.470;2023-11-19T03:36:22;100425.00;;;17.50
15079;BMP180;6932;51.438;5.470;2023-11-19T03:38:48;100418.00;;;17.50
15079;BMP180;6932;51.438;5.470;2023-11-19T03:41:14;100421.00;;;17.50
15079;BMP180;6932;51.438;5.470;2023-11-19T03:43:40;100420.00;;;17.50
15079;BMP180;6932;51.438;5.470;2023-11-19T03:46:35;100408.00;;;17.40
15079;BMP180;6932;51.438;5.470;2023-11-19T03:49:01;100419.00;;;17.40
15079;BMP180;6932;51.438;5.470;2023-11-19T03:51:29;100418.00;;;17.40
15079;BMP180;6932;51.438;5.470;2023-11-19T03:53:55;100421.00;;;17.40
15079;BMP180;6932;51.438;5.470;2023-11-19T03:56:20;100421.00;;;17.40
15079;BMP180;6932;51.438;5.470;2023-11-19T03:58:46;100435.00;;;17.40
15079;BMP180;6932;51.438;5.470;2023-11-19T04:01:12;100425.00;;;17.40
15079;BMP180;6932;51.438;5.470;2023-11-19T04:03:41;100417.00;;;17.40
15079;BMP180;6932;51.438;5.470;2023-11-19T04:06:07;100439.00;;;17.40
15079;BMP180;6932;51.438;5.470;2023-11-19T04:08:33;100432.00;;;17.40
15079;BMP180;6932;51.438;5.470;2023-11-19T04:10:59;100426.00;;;17.40
15079;BMP180;6932;51.438;5.470;2023-11-19T04:13:26;100423.00;;;17.40
15079;BMP180;6932;51.438;5.470;2023-11-19T04:15:52;100423.00;;;17.40
15079;BMP180;6932;51.438;5.470;2023-11-19T04:18:17;100434.00;;;17.40
15079;BMP180;6932;51.438;5.470;2023-11-19T04:20:43;100432.00;;;17.40
15079;BMP180;6932;51.438;5.470;2023-11-19T04:23:09;100441.00;;;17.40
15079;BMP180;6932;51.438;5.470;2023-11-19T04:25:35;100440.00;;;17.40
15079;BMP180;6932;51.438;5.470;2023-11-19T04:28:01;100433.00;;;17.40
15079;BMP180;6932;51.438;5.470;2023-11-19T04:30:28;100447.00;;;17.40
15079;BMP180;6932;51.438;5.470;2023-11-19T04:32:54;100446.00;;;17.40
15079;BMP180;6932;51.438;5.470;2023-11-19T04:35:20;100456.00;;;17.40
15079;BMP180;6932;51.438;5.470;2023-11-19T04:37:46;100453.00;;;17.40
15079;BMP180;6932;51.438;5.470;2023-11-19T04:40:13;100452.00;;;17.40
15079;BMP180;6932;51.438;5.470;2023-11-19T04:42:38;100428.00;;;17.40
15079;BMP180;6932;51.438;5.470;2023-11-19T04:45:07;100422.00;;;17.40
15079;BMP180;6932;51.438;5.470;2023-11-19T04:47:38;100424.00;;;17.40
15079;BMP180;6932;51.438;5.470;2023-11-19T04:50:05;100430.00;;;17.40
15079;BMP180;6932;51.438;5.470;2023-11-19T04:52:31;100441.00;;;17.40
15079;BMP180;6932;51.438;5.470;2023-11-19T04:54:56;100445.00;;;17.40
15079;BMP180;6932;51.438;5.470;2023-11-19T04:57:22;100445.00;;;17.40
15079;BMP180;6932;51.438;5.470;2023-11-19T04:59:48;100443.00;;;17.40
15079;BMP180;6932;51.438;5.470;2023-11-19T05:02:13;100451.00;;;17.30
15079;BMP180;6932;51.438;5.470;2023-11-19T05:04:44;100457.00;;;17.30
15079;BMP180;6932;51.438;5.470;2023-11-19T05:07:11;100447.00;;;17.30
15079;BMP180;6932;51.438;5.470;2023-11-19T05:09:36;100462.00;;;17.30
15079;BMP180;6932;51.438;5.470;2023-11-19T05:12:02;100455.00;;;17.30
15079;BMP180;6932;51.438;5.470;2023-11-19T05:14:28;100455.00;;;17.30
15079;BMP180;6932;51.438;5.470;2023-11-19T05:16:54;100444.00;;;17.30
15079;BMP180;6932;51.438;5.470;2023-11-19T05:19:19;100459.00;;;17.30
15079;BMP180;6932;51.438;5.470;2023-11-19T05:21:45;100462.00;;;17.30
15079;BMP180;6932;51.438;5.470;2023-11-19T05:24:11;100465.00;;;17.30
15079;BMP180;6932;51.438;5.470;2023-11-19T05:26:38;100462.00;;;17.30
15079;BMP180;6932;51.438;5.470;2023-11-19T05:29:03;100462.00;;;17.30
15079;BMP180;6932;51.438;5.470;2023-11-19T05:31:30;100461.00;;;17.30
15079;BMP180;6932;51.438;5.470;2023-11-19T05:33:55;100472.00;;;17.20
15079;BMP180;6932;51.438;5.470;2023-11-19T05:36:21;100475.00;;;17.20
15079;BMP180;6932;51.438;5.470;2023-11-19T05:38:47;100472.00;;;17.20
15079;BMP180;6932;51.438;5.470;2023-11-19T05:41:13;100468.00;;;17.20
15079;BMP180;6932;51.438;5.470;2023-11-19T05:43:39;100475.00;;;17.20
15079;BMP180;6932;51.438;5.470;2023-11-19T05:46:06;100465.00;;;17.20
15079;BMP180;6932;51.438;5.470;2023-11-19T05:48:32;100469.00;;;17.20
15079;BMP180;6932;51.438;5.470;2023-11-19T05:50:58;100474.00;;;17.20
15079;BMP180;6932;51.438;5.470;2023-11-19T05:53:25;100473.00;;;17.20
15079;BMP180;6932;51.438;5.470;2023-11-19T05:55:51;100477.00;;;17.20
15079;BMP180;6932;51.438;5.470;2023-11-19T05:58:27;100458.00;;;17.10
15079;BMP180;6932;51.438;5.470;2023-11-19T06:00:55;100480.00;;;17.10
15079;BMP180;6932;51.438;5.470;2023-11-19T06:03:22;100478.00;;;17.10
15079;BMP180;6932;51.438;5.470;2023-11-19T06:05:49;100478.00;;;17.10
15079;BMP180;6932;51.438;5.470;2023-11-19T06:08:15;100482.00;;;17.10
15079;BMP180;6932;51.438;5.470;2023-11-19T06:10:43;100482.00;;;17.10
15079;BMP180;6932;51.438;5.470;2023-11-19T06:13:09;100478.00;;;17.10
15079;BMP180;6932;51.438;5.470;2023-11-19T06:15:36;100474.00;;;17.10
15079;BMP180;6932;51.438;5.470;2023-11-19T06:18:03;100461.00;;;17.00
15079;BMP180;6932;51.438;5.470;2023-11-19T06:20:33;100468.00;;;17.00
15079;BMP180;6932;51.438;5.470;2023-11-19T06:23:00;100462.00;;;17.00
15079;BMP180;6932;51.438;5.470;2023-11-19T06:25:26;100459.00;;;17.00
15079;BMP180;6932;51.438;5.470;2023-11-19T06:27:52;100481.00;;;17.00
15079;BMP180;6932;51.438;5.470;2023-11-19T06:30:19;100481.00;;;17.00
15079;BMP180;6932;51.438;5.470;2023-11-19T06:32:45;100481.00;;;17.00
15079;BMP180;6932;51.438;5.470;2023-11-19T06:35:11;100476.00;;;16.90
15079;BMP180;6932;51.438;5.470;2023-11-19T06:37:39;100478.00;;;16.90
15079;BMP180;6932;51.438;5.470;2023-11-19T06:40:06;100481.00;;;16.90
15079;BMP180;6932;51.438;5.470;2023-11-19T06:42:32;100476.00;;;16.90
15079;BMP180;6932;51.438;5.470;2023-11-19T06:44:58;100478.00;;;16.90
15079;BMP180;6932;51.438;5.470;2023-11-19T06:47:27;100468.00;;;16.90
15079;BMP180;6932;51.438;5.470;2023-11-19T06:49:54;100472.00;;;16.90
15079;BMP180;6932;51.438;5.470;2023-11-19T06:52:20;100476.00;;;16.90
15079;BMP180;6932;51.438;5.470;2023-11-19T06:54:47;100476.00;;;16.80
15079;BMP180;6932;51.438;5.470;2023-11-19T06:57:13;100470.00;;;16.80
15079;BMP180;6932;51.438;5.470;2023-11-19T06:59:39;100491.00;;;16.80
15079;BMP180;6932;51.438;5.470;2023-11-19T07:02:06;100492.00;;;16.80
15079;BMP180;6932;51.438;5.470;2023-11-19T07:04:32;100491.00;;;16.80
15079;BMP180;6932;51.438;5.470;2023-11-19T07:06:59;100503.00;;;16.80
15079;BMP180;6932;51.438;5.470;2023-11-19T07:09:27;100505.00;;;16.80
15079;BMP180;6932;51.438;5.470;2023-11-19T07:11:53;100517.00;;;16.70
15079;BMP180;6932;51.438;5.470;2023-11-19T07:14:19;100497.00;;;16.70
15079;BMP180;6932;51.438;5.470;2023-11-19T07:16:45;100505.00;;;16.80
15079;BMP180;6932;51.438;5.470;2023-11-19T07:19:12;100505.00;;;16.70
15079;BMP180;6932;51.438;5.470;2023-11-19T07:21:41;100515.00;;;16.70
15079;BMP180;6932;51.438;5.470;2023-11-19T07:24:10;100520.00;;;16.80
15079;BMP180;6932;51.438;5.470;2023-11-19T07:26:36;100520.00;;;16.80
15079;BMP180;6932;51.438;5.470;2023-11-19T07:29:05;100533.00;;;16.80
15079;BMP180;6932;51.438;5.470;2023-11-19T07:31:33;100524.00;;;16.80
15079;BMP180;6932;51.438;5.470;2023-11-19T07:33:58;100530.00;;;16.80
15079;BMP180;6932;51.438;5.470;2023-11-19T07:36:24;100537.00;;;16.80
15079;BMP180;6932;51.438;5.470;2023-11-19T07:38:50;100537.00;;;16.80
15079;BMP180;6932;51.438;5.470;2023-11-19T07:41:16;100540.00;;;16.80
15079;BMP180;6932;51.438;5.470;2023-11-19T07:43:44;100532.00;;;16.80
15079;BMP180;6932;51.438;5.470;2023-11-19T07:46:12;100531.00;;;16.90
15079;BMP180;6932;51.438;5.470;2023-11-19T07:48:41;100530.00;;;16.90
15079;BMP180;6932;51.438;5.470;2023-11-19T07:51:08;100541.00;;;16.90
15079;BMP180;6932;51.438;5.470;2023-11-19T07:53:34;100533.00;;;16.90
15079;BMP180;6932;51.438;5.470;2023-11-19T07:56:01;100529.00;;;17.00
15079;BMP180;6932;51.438;5.470;2023-11-19T07:58:26;100525.00;;;17.00
15079;BMP180;6932;51.438;5.470;2023-11-19T08:00:52;100530.00;;;17.10
15079;BMP180;6932;51.438;5.470;2023-11-19T08:03:18;100536.00;;;17.10
15079;BMP180;6932;51.438;5.470;2023-11-19T08:05:56;100540.00;;;17.20
15079;BMP180;6932;51.438;5.470;2023-11-19T08:08:24;100538.00;;;17.20
15079;BMP180;6932;51.438;5.470;2023-11-19T08:10:50;100545.00;;;17.30
15079;BMP180;6932;51.438;5.470;2023-11-19T08:13:18;100546.00;;;17.30
15079;BMP180;6932;51.438;5.470;2023-11-19T08:15:45;100542.00;;;17.40
15079;BMP180;6932;51.438;5.470;2023-11-19T08:18:11;100530.00;;;17.40
15079;BMP180;6932;51.438;5.470;2023-11-19T08:20:37;100546.00;;;17.50
15079;BMP180;6932;51.438;5.470;2023-11-19T08:23:03;100555.00;;;17.50
15079;BMP180;6932;51.438;5.470;2023-11-19T08:25:31;100547.00;;;17.60
15079;BMP180;6932;51.438;5.470;2023-11-19T08:27:59;100545.00;;;17.60
15079;BMP180;6932;51.438;5.470;2023-11-19T08:30:25;100540.00;;;17.60
15079;BMP180;6932;51.438;5.470;2023-11-19T08:32:51;100553.00;;;17.60
15079;BMP180;6932;51.438;5.470;2023-11-19T08:35:17;100537.00;;;17.60
15079;BMP180;6932;51.438;5.470;2023-11-19T08:37:42;100539.00;;;17.70
15079;BMP180;6932;51.438;5.470;2023-11-19T08:40:09;100544.00;;;17.70
15079;BMP180;6932;51.438;5.470;2023-11-19T08:42:35;100546.00;;;17.70
15079;BMP180;6932;51.438;5.470;2023-11-19T08:45:00;100541.00;;;17.80
15079;BMP180;6932;51.438;5.470;2023-11-19T08:47:26;100537.00;;;17.80
15079;BMP180;6932;51.438;5.470;2023-11-19T08:49:52;100550.00;;;17.80
15079;BMP180;6932;51.438;5.470;2023-11-19T08:52:18;100555.00;;;17.90
15079;BMP180;6932;51.438;5.470;2023-11-19T08:54:44;100550.00;;;17.90
15079;BMP180;6932;51.438;5.470;2023-11-19T08:57:10;100544.00;;;17.90
15079;BMP180;6932;51.438;5.470;2023-11-19T08:59:36;100540.00;;;18.00
15079;BMP180;6932;51.438;5.470;2023-11-19T09:02:05;100549.00;;;18.00
15079;BMP180;6932;51.438;5.470;2023-11-19T09:04:30;100542.00;;;18.10
15079;BMP180;6932;51.438;5.470;2023-11-19T09:06:58;100543.00;;;18.20
15079;BMP180;6932;51.438;5.470;2023-11-19T09:09:24;100550.00;;;18.20
15079;BMP180;6932;51.438;5.470;2023-11-19T09:11:49;100546.00;;;18.20
15079;BMP180;6932;51.438;5.470;2023-11-19T09:14:15;100553.00;;;18.20
15079;BMP180;6932;51.438;5.470;2023-11-19T09:16:41;100546.00;;;18.30
15079;BMP180;6932;51.438;5.470;2023-11-19T09:19:06;100539.00;;;18.30
15079;BMP180;6932;51.438;5.470;2023-11-19T09:21:32;100541.00;;;18.40
15079;BMP180;6932;51.438;5.470;2023-11-19T09:24:00;100557.00;;;18.40
15079;BMP180;6932;51.438;5.470;2023-11-19T09:26:25;100554.00;;;18.50
15079;BMP180;6932;51.438;5.470;2023-11-19T09:28:51;100545.00;;;18.50
15079;BMP180;6932;51.438;5.470;2023-11-19T09:31:18;100541.00;;;18.50
15079;BMP180;6932;51.438;5.470;2023-11-19T09:33:44;100538.00;;;18.50
15079;BMP180;6932;51.438;5.470;2023-11-19T09:36:12;100522.00;;;18.50
15079;BMP180;6932;51.438;5.470;2023-11-19T09:38:43;100528.00;;;18.50
15079;BMP180;6932;51.438;5.470;2023-11-19T09:41:10;100526.00;;;18.50
15079;BMP180;6932;51.438;5.470;2023-11-19T09:43:42;100533.00;;;18.50
15079;BMP180;6932;51.438;5.470;2023-11-19T09:46:16;100537.00;;;18.50
15079;BMP180;6932;51.438;5.470;2023-11-19T09:48:43;100528.00;;;18.50
15079;BMP180;6932;51.438;5.470;2023-11-19T09:51:11;100534.00;;;18.50
15079;BMP180;6932;51.438;5.470;2023-11-19T09:53:38;100539.00;;;18.50
15079;BMP180;6932;51.438;5.470;2023-11-19T09:56:07;100548.00;;;18.50
15079;BMP180;6932;51.438;5.470;2023-11-19T09:58:33;100537.00;;;18.50
15079;BMP180;6932;51.438;5.470;2023-11-19T10:01:00;100539.00;;;18.50
15079;BMP180;6932;51.438;5.470;2023-11-19T10:03:34;100543.00;;;18.50
15079;BMP180;6932;51.438;5.470;2023-11-19T10:06:07;100555.00;;;18.50
15079;BMP180;6932;51.438;5.470;2023-11-19T10:08:38;100542.00;;;18.50
15079;BMP180;6932;51.438;5.470;2023-11-19T10:11:06;100543.00;;;18.60
15079;BMP180;6932;51.438;5.470;2023-11-19T10:13:35;100533.00;;;18.60
15079;BMP180;6932;51.438;5.470;2023-11-19T10:16:13;100513.00;;;18.70
15079;BMP180;6932;51.438;5.470;2023-11-19T10:18:49;100531.00;;;18.70
15079;BMP180;6932;51.438;5.470;2023-11-19T10:21:18;100539.00;;;18.90
15079;BMP180;6932;51.438;5.470;2023-11-19T10:23:56;100544.00;;;18.90
15079;BMP180;6932;51.438;5.470;2023-11-19T10:26:24;100535.00;;;19.00
15079;BMP180;6932;51.438;5.470;2023-11-19T10:28:50;100548.00;;;19.00
15079;BMP180;6932;51.438;5.470;2023-11-19T10:31:18;100529.00;;;19.10
15079;BMP180;6932;51.438;5.470;2023-11-19T10:33:45;100528.00;;;19.10
15079;BMP180;6932;51.438;5.470;2023-11-19T10:36:14;100520.00;;;19.10
15079;BMP180;6932;51.438;5.470;2023-11-19T10:38:40;100551.00;;;19.00
15079;BMP180;6932;51.438;5.470;2023-11-19T10:41:30;100539.00;;;19.00
15079;BMP180;6932;51.438;5.470;2023-11-19T10:43:57;100550.00;;;19.00
15079;BMP180;6932;51.438;5.470;2023-11-19T10:46:23;100528.00;;;19.00
15079;BMP180;6932;51.438;5.470;2023-11-19T10:49:01;100551.00;;;19.00
15079;BMP180;6932;51.438;5.470;2023-11-19T10:51:29;100529.00;;;19.00
15079;BMP180;6932;51.438;5.470;2023-11-19T10:54:03;100544.00;;;19.00
15079;BMP180;6932;51.438;5.470;2023-11-19T10:56:33;100536.00;;;19.10
15079;BMP180;6932;51.438;5.470;2023-11-19T10:59:02;100551.00;;;19.10
15079;BMP180;6932;51.438;5.470;2023-11-19T11:01:53;100535.00;;;19.00
15079;BMP180;6932;51.438;5.470;2023-11-19T11:04:26;100542.00;;;19.10
15079;BMP180;6932;51.438;5.470;2023-11-19T11:06:54;100538.00;;;19.10
15079;BMP180;6932;51.438;5.470;2023-11-19T11:09:26;100527.00;;;19.00
15079;BMP180;6932;51.438;5.470;2023-11-19T11:11:54;100539.00;;;19.00
15079;BMP180;6932;51.438;5.470;2023-11-19T11:14:22;100531.00;;;19.00
15079;BMP180;6932;51.438;5.470;2023-11-19T11:16:48;100536.00;;;19.00
15079;BMP180;6932;51.438;5.470;2023-11-19T11:19:16;100514.00;;;18.90
15079;BMP180;6932;51.438;5.470;2023-11-19T11:21:50;100517.00;;;18.90
15079;BMP180;6932;51.438;5.470;2023-11-19T11:30:13;100531.00;;;18.70
15079;BMP180;6932;51.438;5.470;2023-11-19T11:34:00;100534.00;;;18.60
15079;BMP180;6932;51.438;5.470;2023-11-19T11:36:23;100516.00;;;18.60
15079;BMP180;6932;51.438;5.470;2023-11-19T11:38:50;100518.00;;;18.60
15079;BMP180;6932;51.438;5.470;2023-11-19T11:41:21;100528.00;;;18.60
15079;BMP180;6932;51.438;5.470;2023-11-19T11:43:52;100512.00;;;18.50
15079;BMP180;6932;51.438;5.470;2023-11-19T11:49:06;100489.00;;;18.40
15079;BMP180;6932;51.438;5.470;2023-11-19T11:57:21;100495.00;;;18.40
15079;BMP180;6932;51.438;5.470;2023-11-19T11:59:49;100496.00;;;18.50
15079;BMP180;6932;51.438;5.470;2023-11-19T12:02:19;100496.00;;;18.50
15079;BMP180;6932;51.438;5.470;2023-11-19T12:04:52;100508.00;;;18.50
15079;BMP180;6932;51.438;5.470;2023-11-19T12:07:21;100493.00;;;18.50
15079;BMP180;6932;51.438;5.470;2023-11-19T12:09:52;100496.00;;;18.60
15079;BMP180;6932;51.438;5.470;2023-11-19T12:12:21;100488.00;;;18.60
15079;BMP180;6932;51.438;5.470;2023-11-19T12:20:07;100480.00;;;18.60
15079;BMP180;6932;51.438;5.470;2023-11-19T12:22:42;100479.00;;;18.60
15079;BMP180;6932;51.438;5.470;2023-11-19T12:25:10;100485.00;;;18.60
15079;BMP180;6932;51.438;5.470;2023-11-19T12:27:45;100419.00;;;18.40
15079;BMP180;6932;51.438;5.470;2023-11-19T12:30:12;100420.00;;;18.20
15079;BMP180;6932;51.438;5.470;2023-11-19T12:32:43;100430.00;;;18.00
15079;BMP180;6932;51.438;5.470;2023-11-19T12:35:10;100436.00;;;17.90
15079;BMP180;6932;51.438;5.470;2023-11-19T12:37:46;100435.00;;;17.80
15079;BMP180;6932;51.438;5.470;2023-11-19T12:40:17;100424.00;;;17.70
15079;BMP180;6932;51.438;5.470;2023-11-19T12:42:48;100435.00;;;17.70
15079;BMP180;6932;51.438;5.470;2023-11-19T12:45:14;100437.00;;;17.60
15079;BMP180;6932;51.438;5.470;2023-11-19T12:47:42;100437.00;;;17.60
15079;BMP180;6932;51.438;5.470;2023-11-19T12:50:09;100421.00;;;17.60
15079;BMP180;6932;51.438;5.470;2023-11-19T12:52:36;100420.00;;;17.60
15079;BMP180;6932;51.438;5.470;2023-11-19T12:55:04;100433.00;;;17.60
15079;BMP180;6932;51.438;5.470;2023-11-19T12:57:42;100430.00;;;17.50
15079;BMP180;6932;51.438;5.470;2023-11-19T13:00:20;100429.00;;;17.50
15079;BMP180;6932;51.438;5.470;2023-11-19T13:02:53;100430.00;;;17.50
15079;BMP180;6932;51.438;5.470;2023-11-19T13:05:32;100441.00;;;17.40
15079;BMP180;6932;51.438;5.470;2023-11-19T13:08:09;100435.00;;;17.40
15079;BMP180;6932;51.438;5.470;2023-11-19T13:10:52;100437.00;;;17.30
15079;BMP180;6932;51.438;5.470;2023-11-19T13:13:19;100437.00;;;17.30
15079;BMP180;6932;51.438;5.470;2023-11-19T13:15:45;100432.00;;;17.20
15079;BMP180;6932;51.438;5.470;2023-11-19T13:18:12;100442.00;;;17.20
15079;BMP180;6932;51.438;5.470;2023-11-19T13:20:38;100449.00;;;17.10
15079;BMP180;6932;51.438;5.470;2023-11-19T13:23:06;100439.00;;;17.10
15079;BMP180;6932;51.438;5.470;2023-11-19T13:25:36;100445.00;;;17.00
15079;BMP180;6932;51.438;5.470;2023-11-19T13:28:01;100437.00;;;17.00
15079;BMP180;6932;51.438;5.470;2023-11-19T13:30:28;100437.00;;;17.00
15079;BMP180;6932;51.438;5.470;2023-11-19T13:32:55;100435.00;;;17.00
15079;BMP180;6932;51.438;5.470;2023-11-19T13:35:21;100429.00;;;17.00
15079;BMP180;6932;51.438;5.470;2023-11-19T13:37:53;100423.00;;;17.00
15079;BMP180;6932;51.438;5.470;2023-11-19T13:40:19;100416.00;;;17.00
15079;BMP180;6932;51.438;5.470;2023-11-19T13:42:45;100409.00;;;17.00
15079;BMP180;6932;51.438;5.470;2023-11-19T13:45:12;100407.00;;;17.00
15079;BMP180;6932;51.438;5.470;2023-11-19T13:47:40;100396.00;;;17.00
15079;BMP180;6932;51.438;5.470;2023-11-19T13:50:12;100399.00;;;17.00
15079;BMP180;6932;51.438;5.470;2023-11-19T13:52:40;100420.00;;;17.00
15079;BMP180;6932;51.438;5.470;2023-11-19T13:55:10;100406.00;;;17.00
15079;BMP180;6932;51.438;5.470;2023-11-19T13:57:38;100411.00;;;16.90
15079;BMP180;6932;51.438;5.470;2023-11-19T14:00:09;100406.00;;;16.90
15079;BMP180;6932;51.438;5.470;2023-11-19T14:02:40;100400.00;;;16.90
15079;BMP180;6932;51.438;5.470;2023-11-19T14:05:07;100397.00;;;16.90
15079;BMP180;6932;51.438;5.470;2023-11-19T14:07:33;100390.00;;;16.90
15079;BMP180;6932;51.438;5.470;2023-11-19T14:09:59;100407.00;;;16.90
15079;BMP180;6932;51.438;5.470;2023-11-19T14:12:25;100464.00;;;16.90
15079;BMP180;6932;51.438;5.470;2023-11-19T14:14:51;100461.00;;;17.00
15079;BMP180;6932;51.438;5.470;2023-11-19T14:17:16;100458.00;;;17.10
15079;BMP180;6932;51.438;5.470;2023-11-19T14:19:43;100457.00;;;17.30
15079;BMP180;6932;51.438;5.470;2023-11-19T14:22:09;100458.00;;;17.30
15079;BMP180;6932;51.438;5.470;2023-11-19T14:24:35;100474.00;;;17.40
15079;BMP180;6932;51.438;5.470;2023-11-19T14:27:01;100462.00;;;17.50
15079;BMP180;6932;51.438;5.470;2023-11-19T14:29:27;100462.00;;;17.50
15079;BMP180;6932;51.438;5.470;2023-11-19T14:31:56;100461.00;;;17.50